Columbia, South Carolina
Current Conditions -  °F | °C
As of 12:53 PM on Tuesday 21 Oct 2014 (Local Time) from KCUB Reporting Station
Clear Clear  
Wind Chill: 23°   Ceiling: Unl
Heat Index: 23°   Visibility: 10mi
Dew Point:   Wind: 12mph
Humidity: 34%   Direction: 260°W
Pressure: 29.94"   Gusts: NA
Location:  34°N, 81.04°W
Report Text: KCUB 211653Z AUTO 26010KT 10SM CLR 23/07 A2994 RMK AO2 SLP136 T02330067
Loading
Personal Weather Stations






























Interactive Weather Map
Tropical Storm Tracking
New forecast layout! Learn more

10-Day Weather Forecast

Advertisements
Track Severe Weather on mobile